Nimas+pz 12205 — 9A3279 — position and weather

sailwx.info

Track history (hours):
 
Tides and Currents Weather Stations Pressure Air Temp Water Temp Dewpoint Dewpoint Depression Visibility Wind Speed Wind Dir Waves Ship Positions

Nimas+pz 12205

Last reported at 2017-Nov-18 06:30 UTC. Time now 2017-Nov-18 06:41 UTC.
Position N 43°49' E 022°56'.

Length 73 m; draft 1 m.

Type: Cargo ship. MMSI: 238175740.

Date/timePositionNaut miles runAvg speedWind from/ knotsBaromVisibWave heightAir tempDewpointWater temp
2017-Nov-18 06:30N 43°49' E 022°56'3 5.2
2017-Nov-18 06:00N 43°49' E 022°60'3 5.3
2017-Nov-18 05:30N 43°48' E 023°03'2 4.9
2017-Nov-18 05:00N 43°48' E 023°07'2 4.7
2017-Nov-18 04:30N 43°49' E 023°10'2 3.4
2017-Nov-18 03:56N 43°50' E 023°12'0 0.0
2017-Nov-18 03:27N 43°50' E 023°12'0 0.0
2017-Nov-18 03:00N 43°50' E 023°12'0 0.0
2017-Nov-18 02:30N 43°50' E 023°12'0 0.0
2017-Nov-18 02:00N 43°50' E 023°12'0 0.0
2017-Nov-18 01:30N 43°50' E 023°12'0 0.0
2017-Nov-18 00:54N 43°50' E 023°12'0 0.0
2017-Nov-18 00:29N 43°50' E 023°12'0 0.0
2017-Nov-17 23:59N 43°50' E 023°12'0 0.0
2017-Nov-17 23:30N 43°50' E 023°12'0 0.0
2017-Nov-17 22:56N 43°50' E 023°12'0 0.0
2017-Nov-17 22:30N 43°50' E 023°12'0 0.0
2017-Nov-17 21:59N 43°50' E 023°12'0 0.0
2017-Nov-17 21:29N 43°50' E 023°12'0 0.0
2017-Nov-17 21:00N 43°50' E 023°12'0 0.0
2017-Nov-17 20:29N 43°50' E 023°12'0 0.0
2017-Nov-17 19:54N 43°50' E 023°12'0 0.0
2017-Nov-17 19:20N 43°50' E 023°12'0 0.0
2017-Nov-17 19:00N 43°50' E 023°12'0 0.0
2017-Nov-17 18:30N 43°50' E 023°12'0 0.0
2017-Nov-17 17:52N 43°50' E 023°12'0 0.0
2017-Nov-17 17:27N 43°50' E 023°12'1 1.9
2017-Nov-17 17:00N 43°50' E 023°13'2 4.3
2017-Nov-17 16:30N 43°51' E 023°16'2 4.6
2017-Nov-17 15:59N 43°51' E 023°19'  
Track history (hours):
 
Tides and Currents Weather Stations Pressure Air Temp Water Temp Dewpoint Dewpoint Depression Visibility Wind Speed Wind Dir Waves Ship Positions

Nimas+pz 12205

Last reported at 2017-Nov-18 06:30 UTC. Time now 2017-Nov-18 06:42 UTC.
Position N 43°49' E 022°56'.

Length 73 m; draft 1 m.

Type: Cargo ship. MMSI: 238175740.

Date/timePositionNaut miles runAvg speedWind from/ knotsBaromVisibWave heightAir tempDewpointWater temp
2017-Nov-18 06:30N 43°49' E 022°56'3 5.2
2017-Nov-18 06:00N 43°49' E 022°60'3 5.3
2017-Nov-18 05:30N 43°48' E 023°03'2 4.9
2017-Nov-18 05:00N 43°48' E 023°07'2 4.7
2017-Nov-18 04:30N 43°49' E 023°10'2 3.4
2017-Nov-18 03:56N 43°50' E 023°12'0 0.0
2017-Nov-18 03:27N 43°50' E 023°12'0 0.0
2017-Nov-18 03:00N 43°50' E 023°12'0 0.0
2017-Nov-18 02:30N 43°50' E 023°12'0 0.0
2017-Nov-18 02:00N 43°50' E 023°12'0 0.0
2017-Nov-18 01:30N 43°50' E 023°12'0 0.0
2017-Nov-18 00:54N 43°50' E 023°12'0 0.0
2017-Nov-18 00:29N 43°50' E 023°12'0 0.0
2017-Nov-17 23:59N 43°50' E 023°12'0 0.0
2017-Nov-17 23:30N 43°50' E 023°12'0 0.0
2017-Nov-17 22:56N 43°50' E 023°12'0 0.0
2017-Nov-17 22:30N 43°50' E 023°12'0 0.0
2017-Nov-17 21:59N 43°50' E 023°12'0 0.0
2017-Nov-17 21:29N 43°50' E 023°12'0 0.0
2017-Nov-17 21:00N 43°50' E 023°12'0 0.0
2017-Nov-17 20:29N 43°50' E 023°12'0 0.0
2017-Nov-17 19:54N 43°50' E 023°12'0 0.0
2017-Nov-17 19:20N 43°50' E 023°12'0 0.0
2017-Nov-17 19:00N 43°50' E 023°12'0 0.0
2017-Nov-17 18:30N 43°50' E 023°12'0 0.0
2017-Nov-17 17:52N 43°50' E 023°12'0 0.0
2017-Nov-17 17:27N 43°50' E 023°12'1 1.9
2017-Nov-17 17:00N 43°50' E 023°13'2 4.3
2017-Nov-17 16:30N 43°51' E 023°16'2 4.6
2017-Nov-17 15:59N 43°51' E 023°19'  

Dump ship's entire track history